Terminal Aerodrome Forecast
Issued by NWS Tuscon, AZ

Home | Current Version | Previous Version | Text Only | Print | Product List | Glossary On
Versions: 1 2 3 4 5 6 7 8 9 10 11 12 13 14 15 16 17 18
000
FTUS45 KTWC 020520
TAFTUS
TAF
KTUS 020520Z 0206/0306 16005KT P6SM FEW100 SCT250
     FM021800 29007KT P6SM SCT120
     FM022200 31009G16KT P6SM SCT100
     FM030300 24007KT P6SM FEW100 SCT250=

USA.gov is the U.S. government's official web portal to all federal, state and local government web resources and services.